DAL321 KLAS-KLAX
Flight info
| Callsign | DAL321 |
|---|---|
| Flight time | N/A |
| Altitude | 28000 |
| Route | RADYR2 BLAQQ SHTNR ANJLL4 |
| Aircraft | A20N/M-SDE2E3FGHIRWXY/LB1 |
Departure
| Time | 2026-05-07 22:11 |
|---|---|
| Airport | Harry Reid International Airport (KLAS) |
Arrival
| Time | N/A |
|---|---|
| Airport | Los Angeles International Airport (KLAX) |
| Time | Latitude | Longitude | Altitude | Speed | Heading |
|---|---|---|---|---|---|
| 2026-05-07 21:42 | 36.08312 | -115.13998 | 2098 ft | 0 kts | 131° |
| 2026-05-07 21:58 | 36.08313 | -115.13999 | 2098 ft | 3 kts | 131° |
| 2026-05-07 21:58 | 36.08327 | -115.14019 | 2097 ft | 3 kts | 136° |
| 2026-05-07 21:58 | 36.08345 | -115.14035 | 2096 ft | 3 kts | 159° |
| 2026-05-07 21:59 | 36.08359 | -115.14039 | 2095 ft | 0 kts | 189° |
| 2026-05-07 21:59 | 36.08354 | -115.13999 | 2095 ft | 0 kts | 189° |
| 2026-05-07 22:04 | 36.08336 | -115.14012 | 2097 ft | 7 kts | 222° |
| 2026-05-07 22:05 | 36.08292 | -115.14104 | 2098 ft | 18 kts | 216° |
| 2026-05-07 22:05 | 36.08161 | -115.14158 | 2105 ft | 20 kts | 181° |
| 2026-05-07 22:05 | 36.08083 | -115.14159 | 2109 ft | 8 kts | 181° |
| 2026-05-07 22:05 | 36.08029 | -115.14160 | 2112 ft | 8 kts | 181° |
| 2026-05-07 22:06 | 36.07964 | -115.14148 | 2115 ft | 12 kts | 153° |
| 2026-05-07 22:06 | 36.07884 | -115.14061 | 2117 ft | 19 kts | 131° |
| 2026-05-07 22:06 | 36.07843 | -115.13894 | 2126 ft | 23 kts | 102° |
| 2026-05-07 22:06 | 36.07828 | -115.13680 | 2123 ft | 27 kts | 89° |
| 2026-05-07 22:07 | 36.07827 | -115.13482 | 2127 ft | 21 kts | 90° |
| 2026-05-07 22:07 | 36.07826 | -115.13307 | 2128 ft | 20 kts | 90° |
| 2026-05-07 22:07 | 36.07826 | -115.13126 | 2120 ft | 21 kts | 89° |
| 2026-05-07 22:07 | 36.07828 | -115.12947 | 2120 ft | 20 kts | 89° |
| 2026-05-07 22:08 | 36.07831 | -115.12768 | 2116 ft | 22 kts | 89° |
| 2026-05-07 22:08 | 36.07831 | -115.12572 | 2115 ft | 23 kts | 91° |
| 2026-05-07 22:08 | 36.07827 | -115.12386 | 2118 ft | 21 kts | 91° |
| 2026-05-07 22:08 | 36.07809 | -115.12223 | 2119 ft | 18 kts | 121° |
| 2026-05-07 22:09 | 36.07756 | -115.12152 | 2121 ft | 4 kts | 138° |
| 2026-05-07 22:09 | 36.07754 | -115.12149 | 2122 ft | 0 kts | 139° |
| 2026-05-07 22:09 | 36.07744 | -115.12139 | 2122 ft | 4 kts | 142° |
| 2026-05-07 22:09 | 36.07693 | -115.12124 | 2125 ft | 11 kts | 181° |
| 2026-05-07 22:10 | 36.07630 | -115.12178 | 2127 ft | 12 kts | 271° |
| 2026-05-07 22:10 | 36.07641 | -115.12317 | 2122 ft | 31 kts | 270° |
| 2026-05-07 22:10 | 36.07641 | -115.12948 | 2121 ft | 112 kts | 270° |
| 2026-05-07 22:10 | 36.07638 | -115.14191 | 2129 ft | 175 kts | 270° |
| 2026-05-07 22:11 | 36.07631 | -115.15708 | 2909 ft | 173 kts | 270° |
| 2026-05-07 22:11 | 36.07635 | -115.17209 | 3749 ft | 178 kts | 271° |
| 2026-05-07 22:11 | 36.07638 | -115.18867 | 4034 ft | 206 kts | 269° |
| 2026-05-07 22:11 | 36.07570 | -115.20754 | 4330 ft | 231 kts | 264° |
| 2026-05-07 22:12 | 36.07274 | -115.22780 | 4829 ft | 248 kts | 256° |
| 2026-05-07 22:12 | 36.06718 | -115.24847 | 5462 ft | 256 kts | 240° |
| 2026-05-07 22:12 | 36.05527 | -115.26440 | 6349 ft | 255 kts | 212° |
| 2026-05-07 22:12 | 36.03894 | -115.27363 | 6995 ft | 266 kts | 202° |
| 2026-05-07 22:13 | 36.02087 | -115.28184 | 7422 ft | 284 kts | 201° |
| 2026-05-07 22:13 | 36.00199 | -115.29004 | 7874 ft | 288 kts | 201° |
| 2026-05-07 22:13 | 35.98263 | -115.29666 | 8085 ft | 290 kts | 192° |
| 2026-05-07 22:13 | 35.96270 | -115.30118 | 8307 ft | 294 kts | 192° |
| 2026-05-07 22:14 | 35.94260 | -115.30595 | 8538 ft | 293 kts | 193° |
| 2026-05-07 22:14 | 35.92255 | -115.31085 | 8758 ft | 295 kts | 193° |
| 2026-05-07 22:14 | 35.90254 | -115.31580 | 9230 ft | 299 kts | 194° |
| 2026-05-07 22:14 | 35.88211 | -115.32082 | 10070 ft | 300 kts | 194° |
| 2026-05-07 22:15 | 35.86115 | -115.32603 | 10523 ft | 318 kts | 193° |
| 2026-05-07 22:15 | 35.83862 | -115.33164 | 10725 ft | 342 kts | 192° |
| 2026-05-07 22:15 | 35.81494 | -115.33745 | 11297 ft | 350 kts | 192° |
| 2026-05-07 22:15 | 35.79091 | -115.34336 | 11984 ft | 356 kts | 192° |
| 2026-05-07 22:16 | 35.76646 | -115.34936 | 12680 ft | 360 kts | 191° |
| 2026-05-07 22:16 | 35.74176 | -115.35542 | 13423 ft | 364 kts | 191° |
| 2026-05-07 22:16 | 35.71670 | -115.36156 | 14090 ft | 369 kts | 191° |
| 2026-05-07 22:16 | 35.69136 | -115.36776 | 14729 ft | 374 kts | 191° |
| 2026-05-07 22:17 | 35.66570 | -115.37404 | 15359 ft | 378 kts | 191° |
| 2026-05-07 22:17 | 35.63972 | -115.38038 | 16001 ft | 382 kts | 191° |
| 2026-05-07 22:17 | 35.61330 | -115.38567 | 16634 ft | 387 kts | 185° |
| 2026-05-07 22:17 | 35.58631 | -115.38653 | 17259 ft | 391 kts | 176° |
| 2026-05-07 22:18 | 35.55907 | -115.38443 | 17866 ft | 395 kts | 175° |
| 2026-05-07 22:18 | 35.50356 | -115.38026 | 18998 ft | 403 kts | 175° |
| 2026-05-07 22:18 | 35.47537 | -115.37828 | 19523 ft | 407 kts | 177° |
| 2026-05-07 22:19 | 35.44695 | -115.38063 | 20053 ft | 412 kts | 190° |
| 2026-05-07 22:19 | 35.41967 | -115.39021 | 20566 ft | 416 kts | 203° |
| 2026-05-07 22:19 | 35.39364 | -115.40605 | 21088 ft | 420 kts | 208° |
| 2026-05-07 22:19 | 35.36764 | -115.42286 | 21564 ft | 425 kts | 208° |
| 2026-05-07 22:20 | 35.34136 | -115.43976 | 22107 ft | 428 kts | 208° |
| 2026-05-07 22:20 | 35.31481 | -115.45677 | 22621 ft | 432 kts | 208° |
| 2026-05-07 22:20 | 35.28806 | -115.47386 | 23134 ft | 436 kts | 208° |
| 2026-05-07 22:20 | 35.26104 | -115.49108 | 23635 ft | 439 kts | 208° |
| 2026-05-07 22:21 | 35.23384 | -115.50842 | 24059 ft | 442 kts | 208° |
| 2026-05-07 22:21 | 35.20648 | -115.52584 | 24515 ft | 445 kts | 208° |
| 2026-05-07 22:21 | 35.17893 | -115.54336 | 24910 ft | 448 kts | 208° |
| 2026-05-07 22:21 | 35.15127 | -115.56126 | 25323 ft | 451 kts | 211° |
| 2026-05-07 22:22 | 35.12507 | -115.58243 | 25728 ft | 452 kts | 219° |
| 2026-05-07 22:22 | 35.10129 | -115.60755 | 26152 ft | 453 kts | 226° |
| 2026-05-07 22:22 | 35.07943 | -115.63546 | 26526 ft | 456 kts | 228° |
| 2026-05-07 22:22 | 35.05761 | -115.66356 | 26911 ft | 457 kts | 228° |
| 2026-05-07 22:23 | 35.04305 | -115.68224 | 27162 ft | 459 kts | 227° |
| 2026-05-07 22:23 | 35.02093 | -115.71053 | 27521 ft | 462 kts | 227° |
| 2026-05-07 22:23 | 34.99867 | -115.73896 | 27831 ft | 465 kts | 227° |
| 2026-05-07 22:23 | 34.97623 | -115.76757 | 27938 ft | 467 kts | 227° |
| 2026-05-07 22:24 | 34.94649 | -115.80544 | 27943 ft | 466 kts | 227° |
| 2026-05-07 22:24 | 34.93133 | -115.82471 | 27932 ft | 466 kts | 227° |
| 2026-05-07 22:24 | 34.90892 | -115.85321 | 27931 ft | 466 kts | 227° |
| 2026-05-07 22:24 | 34.88649 | -115.88170 | 27934 ft | 466 kts | 227° |
| 2026-05-07 22:25 | 34.86404 | -115.91020 | 27926 ft | 466 kts | 227° |
| 2026-05-07 22:25 | 34.84159 | -115.93867 | 27926 ft | 467 kts | 227° |
| 2026-05-07 22:25 | 34.81887 | -115.96748 | 27928 ft | 477 kts | 227° |
| 2026-05-07 22:25 | 34.79563 | -115.99692 | 27923 ft | 488 kts | 227° |
| 2026-05-07 22:26 | 34.77192 | -116.02692 | 27925 ft | 495 kts | 227° |
| 2026-05-07 22:26 | 34.74788 | -116.05746 | 27918 ft | 504 kts | 227° |
| 2026-05-07 22:26 | 34.72388 | -116.08807 | 27918 ft | 508 kts | 227° |
| 2026-05-07 22:26 | 34.69948 | -116.11919 | 27920 ft | 508 kts | 227° |
| 2026-05-07 22:27 | 34.67506 | -116.15028 | 27919 ft | 508 kts | 227° |
| 2026-05-07 22:27 | 34.65067 | -116.18128 | 27921 ft | 508 kts | 227° |
| 2026-05-07 22:27 | 34.62625 | -116.21230 | 27922 ft | 508 kts | 227° |
| 2026-05-07 22:27 | 34.60182 | -116.24330 | 27921 ft | 508 kts | 227° |
| 2026-05-07 22:28 | 34.57739 | -116.27426 | 27922 ft | 507 kts | 227° |
| 2026-05-07 22:28 | 34.55301 | -116.30513 | 27929 ft | 507 kts | 227° |
| 2026-05-07 22:28 | 34.52860 | -116.33601 | 27931 ft | 507 kts | 227° |
| 2026-05-07 22:28 | 34.50417 | -116.36689 | 27929 ft | 507 kts | 227° |
| 2026-05-07 22:29 | 34.47980 | -116.39767 | 27888 ft | 505 kts | 227° |
| 2026-05-07 22:29 | 34.45549 | -116.42834 | 27615 ft | 504 kts | 227° |
| 2026-05-07 22:29 | 34.43196 | -116.45980 | 27359 ft | 503 kts | 232° |
| 2026-05-07 22:29 | 34.41152 | -116.49406 | 27106 ft | 500 kts | 239° |
| 2026-05-07 22:30 | 34.39455 | -116.53058 | 26870 ft | 496 kts | 245° |
| 2026-05-07 22:30 | 34.37932 | -116.56797 | 26608 ft | 495 kts | 245° |
| 2026-05-07 22:30 | 34.36409 | -116.60517 | 26359 ft | 492 kts | 245° |
| 2026-05-07 22:30 | 34.34894 | -116.64198 | 26218 ft | 484 kts | 245° |
| 2026-05-07 22:31 | 34.33407 | -116.67797 | 26092 ft | 472 kts | 245° |
| 2026-05-07 22:31 | 34.31977 | -116.71302 | 25948 ft | 457 kts | 246° |
| 2026-05-07 22:31 | 34.30608 | -116.74712 | 25797 ft | 443 kts | 246° |
| 2026-05-07 22:31 | 34.29279 | -116.78032 | 25437 ft | 436 kts | 246° |
| 2026-05-07 22:32 | 34.27965 | -116.81313 | 24716 ft | 431 kts | 246° |
| 2026-05-07 22:32 | 34.26661 | -116.84561 | 23929 ft | 428 kts | 246° |
| 2026-05-07 22:32 | 34.25367 | -116.87775 | 23213 ft | 422 kts | 245° |
| 2026-05-07 22:32 | 34.24099 | -116.90912 | 22710 ft | 409 kts | 245° |
| 2026-05-07 22:33 | 34.22859 | -116.93979 | 22209 ft | 405 kts | 245° |
| 2026-05-07 22:33 | 34.21642 | -116.96988 | 21693 ft | 402 kts | 246° |
| 2026-05-07 22:33 | 34.20611 | -117.00100 | 21171 ft | 398 kts | 254° |
| 2026-05-07 22:33 | 34.19765 | -117.03272 | 20659 ft | 396 kts | 254° |
| 2026-05-07 22:34 | 34.18917 | -117.06431 | 20133 ft | 394 kts | 253° |
| 2026-05-07 22:34 | 34.18069 | -117.09569 | 19615 ft | 392 kts | 254° |
| 2026-05-07 22:34 | 34.17223 | -117.12692 | 19072 ft | 391 kts | 253° |
| 2026-05-07 22:34 | 34.16378 | -117.15805 | 18552 ft | 390 kts | 254° |
| 2026-05-07 22:35 | 34.15526 | -117.18919 | 17986 ft | 390 kts | 253° |
| 2026-05-07 22:35 | 34.14674 | -117.22017 | 17460 ft | 387 kts | 253° |
| 2026-05-07 22:35 | 34.13826 | -117.25090 | 16938 ft | 385 kts | 253° |
| 2026-05-07 22:35 | 34.12985 | -117.28143 | 16412 ft | 382 kts | 253° |
| 2026-05-07 22:36 | 34.12150 | -117.31166 | 15906 ft | 374 kts | 253° |